Celtic Gas — OWQI2 — position and weather

sailwx.info

Track history (hours):
 
Tides and Currents Weather Stations Pressure Air Temp Water Temp Dewpoint Dewpoint Depression Visibility Wind Speed Wind Dir Waves Ship Positions

Celtic Gas

Last reported at 2018-Apr-08 09:29 UTC. Time now 2018-Apr-22 13:58 UTC.
Position N 23°28' W 087°50'.
Warning: this ship's position is 14 days out of date.

Length 160 m; draft 7.3 m.

Type: Ship (hazmat cat D). MMSI: 219683000.

Date/timePositionNaut miles runAvg speedWind from/ knotsBaromVisibWave heightAir tempDewpointWater temp
2018-Apr-08 09:29N 23°28' W 087°50'816.2
2018-Apr-08 09:00N 23°32' W 087°57'8216.6
2018-Apr-08 04:01N 24°16' W 089°14'117.0
2018-Apr-08 03:59N 24°17' W 089°14'817.2
2018-Apr-08 03:31N 24°20' W 089°22'917.3
2018-Apr-08 03:00N 24°24' W 089°31'917.5
2018-Apr-08 02:30N 24°28' W 089°39'917.7
2018-Apr-08 02:01N 24°32' W 089°48'917.9
2018-Apr-08 01:31N 24°36' W 089°57'33114.9
2018-Apr-07 03:17N 28°25' W 094°25'515.3
2018-Apr-07 02:58N 28°29' W 094°25'715.2
2018-Apr-07 02:30N 28°37' W 094°25'815.1
2018-Apr-07 01:59N 28°44' W 094°26'815.0
2018-Apr-07 01:28N 28°52' W 094°26'715.2
2018-Apr-07 01:00N 28°59' W 094°25'815.0
2018-Apr-07 00:28N 29°07' W 094°26'814.8
2018-Apr-06 23:57N 29°13' W 094°32'614.2
2018-Apr-06 23:30N 29°18' W 094°37'610.3
2018-Apr-06 22:53N 29°21' W 094°43'20 0.8
2018-Apr-05 22:02N 29°02' W 094°36'114.3
2018-Apr-05 21:59N 29°02' W 094°37'714.3
2018-Apr-05 21:29N 28°58' W 094°44'  
Track history (hours):
 
Tides and Currents Weather Stations Pressure Air Temp Water Temp Dewpoint Dewpoint Depression Visibility Wind Speed Wind Dir Waves Ship Positions

Celtic Gas

Last reported at 2018-Apr-08 09:29 UTC. Time now 2018-Apr-22 13:58 UTC.
Position N 23°28' W 087°50'.
Warning: this ship's position is 14 days out of date.

Length 160 m; draft 7.3 m.

Type: Ship (hazmat cat D). MMSI: 219683000.

Date/timePositionNaut miles runAvg speedWind from/ knotsBaromVisibWave heightAir tempDewpointWater temp
2018-Apr-08 09:29N 23°28' W 087°50'816.2
2018-Apr-08 09:00N 23°32' W 087°57'8216.6
2018-Apr-08 04:01N 24°16' W 089°14'117.0
2018-Apr-08 03:59N 24°17' W 089°14'817.2
2018-Apr-08 03:31N 24°20' W 089°22'917.3
2018-Apr-08 03:00N 24°24' W 089°31'917.5
2018-Apr-08 02:30N 24°28' W 089°39'917.7
2018-Apr-08 02:01N 24°32' W 089°48'917.9
2018-Apr-08 01:31N 24°36' W 089°57'33114.9
2018-Apr-07 03:17N 28°25' W 094°25'515.3
2018-Apr-07 02:58N 28°29' W 094°25'715.2
2018-Apr-07 02:30N 28°37' W 094°25'815.1
2018-Apr-07 01:59N 28°44' W 094°26'815.0
2018-Apr-07 01:28N 28°52' W 094°26'715.2
2018-Apr-07 01:00N 28°59' W 094°25'815.0
2018-Apr-07 00:28N 29°07' W 094°26'814.8
2018-Apr-06 23:57N 29°13' W 094°32'614.2
2018-Apr-06 23:30N 29°18' W 094°37'610.3
2018-Apr-06 22:53N 29°21' W 094°43'20 0.8
2018-Apr-05 22:02N 29°02' W 094°36'114.3
2018-Apr-05 21:59N 29°02' W 094°37'714.3
2018-Apr-05 21:29N 28°58' W 094°44'  

Dump ship's entire track history